createdAt,value
2019-03-29T00:03:46.474Z,5.90
2019-03-29T00:07:48.351Z,5.90
2019-03-29T00:11:50.247Z,5.90
2019-03-29T00:15:52.200Z,5.90
2019-03-29T00:19:54.275Z,5.90
2019-03-29T00:24:06.784Z,5.90
2019-03-29T00:28:01.806Z,5.90
2019-03-29T00:32:03.683Z,5.80
2019-03-29T00:36:05.583Z,5.80
2019-03-29T00:40:08.412Z,5.90
2019-03-29T00:44:10.289Z,6.00
2019-03-29T00:48:12.196Z,6.10
2019-03-29T00:52:14.065Z,6.00
2019-03-29T00:56:16.001Z,6.00
2019-03-29T01:00:18.408Z,6.00
2019-03-29T01:04:20.300Z,6.00
2019-03-29T01:08:22.189Z,6.10
2019-03-29T01:12:24.068Z,6.10
2019-03-29T01:16:25.963Z,6.20
2019-03-29T01:20:27.871Z,6.20
2019-03-29T01:24:39.663Z,6.20
2019-03-29T01:28:41.628Z,6.30
2019-03-29T01:32:43.510Z,6.30
2019-03-29T01:36:46.495Z,6.30
2019-03-29T01:40:48.404Z,6.40
2019-03-29T01:44:50.297Z,6.40
2019-03-29T01:48:52.204Z,6.40
2019-03-29T01:52:54.088Z,6.40
2019-03-29T01:56:55.982Z,6.40
2019-03-29T02:00:57.955Z,6.40
2019-03-29T02:05:00.210Z,6.40
2019-03-29T02:09:04.990Z,6.40
2019-03-29T02:13:06.961Z,6.40
2019-03-29T02:17:08.855Z,6.50
2019-03-29T02:21:10.763Z,6.40
2019-03-29T02:25:12.950Z,6.40
2019-03-29T02:29:14.858Z,6.40
2019-03-29T02:33:16.799Z,6.50
2019-03-29T02:37:18.724Z,6.50
2019-03-29T02:41:20.648Z,6.50
2019-03-29T02:45:22.541Z,6.50
2019-03-29T02:49:24.442Z,6.50
2019-03-29T02:53:27.165Z,6.50
2019-03-29T02:57:29.056Z,6.40
2019-03-29T03:01:31.044Z,6.40
2019-03-29T03:05:32.951Z,6.50
2019-03-29T03:09:34.843Z,6.40
2019-03-29T03:13:36.744Z,6.40
2019-03-29T03:17:39.249Z,6.40
2019-03-29T03:21:41.215Z,6.40
2019-03-29T03:25:43.098Z,6.40
2019-03-29T03:29:48.132Z,6.60
2019-03-29T03:33:48.657Z,6.50
2019-03-29T03:37:50.539Z,6.50
2019-03-29T03:41:52.510Z,6.40
2019-03-29T03:45:54.403Z,6.40
2019-03-29T03:50:00.653Z,6.40
2019-03-29T03:54:01.354Z,6.40
2019-03-29T03:58:05.745Z,6.40
2019-03-29T04:02:07.693Z,6.40
2019-03-29T04:06:09.587Z,6.40
2019-03-29T04:10:11.481Z,6.40
2019-03-29T04:14:13.383Z,6.40
2019-03-29T04:18:16.208Z,6.50
2019-03-29T04:22:18.573Z,6.40
2019-03-29T04:26:20.465Z,6.40
2019-03-29T04:30:22.373Z,6.40
2019-03-29T04:34:24.261Z,6.40
2019-03-29T04:38:26.173Z,6.40
2019-03-29T04:42:28.050Z,6.40
2019-03-29T04:46:29.937Z,6.40
2019-03-29T04:50:31.818Z,6.40
2019-03-29T04:54:33.721Z,6.40
2019-03-29T04:58:35.594Z,6.30
2019-03-29T05:02:37.504Z,6.30
2019-03-29T05:06:39.462Z,6.20
2019-03-29T05:10:41.365Z,6.20
2019-03-29T05:14:43.276Z,6.20
2019-03-29T05:18:46.398Z,6.20
2019-03-29T05:23:07.584Z,6.20
2019-03-29T05:27:24.110Z,6.20
2019-03-29T05:31:26.034Z,6.20
2019-03-29T05:35:29.084Z,6.30
2019-03-29T05:39:31.104Z,6.30
2019-03-29T05:43:33.016Z,6.30
2019-03-29T05:47:34.895Z,6.30
2019-03-29T05:51:36.805Z,6.40
2019-03-29T05:55:38.718Z,6.40
2019-03-29T05:59:40.626Z,6.50
2019-03-29T06:03:42.657Z,6.50
2019-03-29T06:07:45.121Z,6.60
2019-03-29T06:11:47.099Z,6.70
2019-03-29T06:15:49.024Z,6.80
2019-03-29T06:19:50.945Z,7.00
2019-03-29T06:23:52.863Z,7.20
2019-03-29T06:27:54.775Z,7.20
2019-03-29T06:31:56.687Z,7.30
2019-03-29T06:36:00.801Z,7.50
2019-03-29T06:40:03.410Z,7.70
2019-03-29T06:44:05.306Z,7.80
2019-03-29T06:48:07.270Z,7.90
2019-03-29T06:52:09.183Z,8.00
2019-03-29T06:56:11.082Z,8.20
2019-03-29T07:00:14.215Z,8.20
2019-03-29T07:04:16.160Z,8.20
2019-03-29T07:08:18.135Z,8.40
2019-03-29T07:12:20.073Z,8.40
2019-03-29T07:16:21.991Z,8.50
2019-03-29T07:20:23.937Z,8.40
2019-03-29T07:24:25.865Z,8.40
2019-03-29T07:28:42.944Z,8.50
2019-03-29T07:32:44.847Z,8.60
2019-03-29T07:36:46.804Z,8.80
2019-03-29T07:40:48.695Z,8.90
2019-03-29T07:44:50.673Z,9.10
2019-03-29T07:48:52.615Z,9.10
2019-03-29T07:52:54.544Z,9.20
2019-03-29T07:56:56.457Z,9.20
2019-03-29T08:00:58.352Z,9.30
2019-03-29T08:05:00.544Z,9.40
2019-03-29T08:09:02.397Z,9.40
2019-03-29T08:13:05.369Z,9.60
2019-03-29T08:17:07.351Z,9.80
2019-03-29T08:21:10.968Z,9.90
2019-03-29T08:25:12.939Z,9.90
2019-03-29T08:29:14.819Z,9.90
2019-03-29T08:33:16.734Z,9.90
2019-03-29T08:37:18.910Z,10.10
2019-03-29T08:41:20.831Z,10.20
2019-03-29T08:45:22.923Z,10.40
2019-03-29T08:49:24.861Z,10.50
2019-03-29T08:53:27.619Z,10.40
2019-03-29T08:57:29.540Z,10.50
2019-03-29T09:01:32.424Z,10.60
2019-03-29T09:05:34.335Z,10.80
2019-03-29T09:09:36.466Z,11.00
2019-03-29T09:13:38.381Z,11.00
2019-03-29T09:17:41.260Z,11.20
2019-03-29T09:21:43.164Z,11.30
2019-03-29T09:25:45.139Z,11.50
2019-03-29T09:29:47.030Z,11.50
2019-03-29T09:33:48.933Z,11.60
2019-03-29T09:37:50.864Z,11.80
2019-03-29T09:41:52.852Z,11.90
2019-03-29T09:45:54.755Z,12.00
2019-03-29T09:49:56.669Z,12.30
2019-03-29T09:53:58.596Z,12.40
2019-03-29T09:58:01.781Z,12.40
2019-03-29T10:02:03.793Z,12.40
2019-03-29T10:06:05.676Z,12.40
2019-03-29T10:10:08.217Z,12.60
2019-03-29T10:14:10.115Z,12.60
2019-03-29T10:18:13.115Z,12.60
2019-03-29T10:22:15.027Z,12.90
2019-03-29T10:26:16.944Z,13.50
2019-03-29T10:30:35.294Z,13.80
2019-03-29T10:34:37.625Z,13.60
2019-03-29T10:38:39.699Z,14.20
2019-03-29T10:42:41.604Z,14.50
2019-03-29T10:46:43.520Z,14.50
2019-03-29T10:50:45.410Z,14.70
2019-03-29T10:54:49.881Z,15.00
2019-03-29T10:58:50.915Z,15.00
2019-03-29T11:02:52.856Z,15.40
2019-03-29T11:06:54.769Z,15.20
2019-03-29T11:10:56.666Z,15.50
2019-03-29T11:14:58.571Z,15.80
2019-03-29T11:19:00.554Z,15.50
2019-03-29T11:23:03.429Z,15.50
2019-03-29T11:27:05.346Z,15.90
2019-03-29T11:31:07.419Z,15.60
2019-03-29T11:35:09.458Z,15.80
2019-03-29T11:39:11.369Z,15.70
2019-03-29T11:43:26.049Z,15.70
2019-03-29T11:47:16.897Z,15.60
2019-03-29T11:51:20.052Z,15.40
2019-03-29T11:55:22.182Z,15.70
2019-03-29T11:59:24.098Z,15.70
2019-03-29T12:03:26.044Z,16.50
2019-03-29T12:07:28.130Z,15.80
2019-03-29T12:11:30.028Z,16.10
2019-03-29T12:15:31.933Z,16.00
2019-03-29T12:19:33.938Z,16.40
2019-03-29T12:23:35.844Z,16.50
2019-03-29T12:27:37.750Z,16.90
2019-03-29T12:31:39.645Z,16.70
2019-03-29T12:35:41.543Z,16.80
2019-03-29T12:39:43.443Z,16.90
2019-03-29T12:43:55.437Z,17.50
2019-03-29T12:47:50.640Z,17.90
2019-03-29T12:51:52.637Z,17.80
2019-03-29T12:55:54.538Z,18.60
2019-03-29T12:59:56.444Z,18.70
2019-03-29T13:03:58.360Z,18.70
2019-03-29T13:08:00.288Z,18.80
2019-03-29T13:12:02.256Z,18.70
2019-03-29T13:16:04.342Z,19.00
2019-03-29T13:20:08.000Z,19.60
2019-03-29T13:24:11.022Z,20.10
2019-03-29T13:28:29.532Z,19.50
2019-03-29T13:32:33.360Z,19.30
2019-03-29T13:36:38.898Z,19.60
2019-03-29T13:40:40.778Z,19.30
2019-03-29T13:44:45.165Z,19.90
2019-03-29T13:48:47.062Z,20.10
2019-03-29T13:52:48.970Z,20.10
2019-03-29T13:56:51.968Z,19.90
2019-03-29T14:00:55.036Z,19.80
2019-03-29T14:04:56.964Z,19.50
2019-03-29T14:08:58.872Z,19.50
2019-03-29T14:13:00.773Z,20.00
2019-03-29T14:17:02.747Z,20.00
2019-03-29T14:21:04.711Z,20.40
2019-03-29T14:25:08.529Z,20.90
2019-03-29T14:29:13.719Z,20.80
2019-03-29T14:33:15.635Z,20.00
2019-03-29T14:37:17.606Z,20.30
2019-03-29T14:41:19.537Z,21.00
2019-03-29T14:45:21.539Z,20.30
2019-03-29T14:49:23.479Z,20.30
2019-03-29T14:53:25.368Z,19.70
2019-03-29T14:57:27.264Z,19.10
2019-03-29T15:01:29.166Z,19.10
2019-03-29T15:05:31.226Z,19.10
2019-03-29T15:09:33.141Z,19.20
2019-03-29T15:13:35.054Z,19.50
2019-03-29T15:17:37.043Z,19.70
2019-03-29T15:21:38.945Z,19.30
2019-03-29T15:25:41.072Z,19.30
2019-03-29T15:29:43.044Z,19.30
2019-03-29T15:33:47.101Z,18.90
2019-03-29T15:37:48.988Z,18.80
2019-03-29T15:41:50.890Z,18.70
2019-03-29T15:45:52.806Z,18.60
2019-03-29T15:49:56.138Z,18.40
2019-03-29T15:53:59.471Z,17.90
2019-03-29T15:58:01.732Z,17.80
2019-03-29T16:02:03.704Z,17.90
2019-03-29T16:06:05.594Z,17.40
2019-03-29T16:10:07.845Z,17.30
2019-03-29T16:14:09.766Z,17.10
2019-03-29T16:18:11.677Z,17.10
2019-03-29T16:22:13.595Z,17.30
2019-03-29T16:26:15.527Z,16.90
2019-03-29T16:30:17.957Z,16.80
2019-03-29T16:34:19.851Z,16.70
2019-03-29T16:38:21.769Z,16.80
2019-03-29T16:42:23.746Z,16.80
2019-03-29T16:46:25.637Z,16.70
2019-03-29T16:50:27.552Z,16.30
2019-03-29T16:54:29.458Z,15.90
2019-03-29T16:58:31.361Z,15.50
2019-03-29T17:02:33.301Z,15.10
2019-03-29T17:06:35.354Z,14.70
2019-03-29T17:10:37.325Z,14.40
2019-03-29T17:14:39.305Z,14.10
2019-03-29T17:18:41.211Z,13.70
2019-03-29T17:22:43.702Z,13.50
2019-03-29T17:26:45.627Z,13.30
2019-03-29T17:30:49.192Z,12.90
2019-03-29T17:34:51.426Z,12.50
2019-03-29T17:38:53.322Z,12.20
2019-03-29T17:42:56.597Z,12.00
2019-03-29T17:46:58.504Z,11.70
2019-03-29T17:51:00.417Z,11.60
2019-03-29T17:55:02.321Z,11.40
2019-03-29T17:59:04.308Z,11.10
2019-03-29T18:03:07.275Z,10.90
2019-03-29T18:07:09.266Z,10.80
2019-03-29T18:11:11.274Z,10.60
2019-03-29T18:15:13.836Z,10.40
2019-03-29T18:19:15.794Z,10.20
2019-03-29T18:23:17.679Z,10.10
2019-03-29T18:27:19.631Z,10.00
2019-03-29T18:31:21.814Z,9.80
2019-03-29T18:35:25.224Z,9.80
2019-03-29T18:39:37.149Z,9.60
2019-03-29T18:43:39.115Z,9.50
2019-03-29T18:47:41.001Z,9.40
2019-03-29T18:51:42.915Z,9.10
2019-03-29T18:55:44.848Z,9.00
2019-03-29T18:59:47.511Z,8.90
2019-03-29T19:03:49.469Z,8.80
2019-03-29T19:07:51.377Z,8.70
2019-03-29T19:11:53.292Z,8.60
2019-03-29T19:15:55.177Z,8.50
2019-03-29T19:19:57.068Z,8.40
2019-03-29T19:23:59.006Z,8.20
2019-03-29T19:28:02.047Z,8.00
2019-03-29T19:32:05.215Z,7.90
2019-03-29T19:36:07.140Z,7.80
2019-03-29T19:40:10.745Z,7.70
2019-03-29T19:44:13.821Z,7.60
2019-03-29T19:48:15.897Z,7.40
2019-03-29T19:52:17.767Z,7.30
2019-03-29T19:56:19.735Z,7.20
2019-03-29T20:00:40.797Z,7.20
2019-03-29T20:04:42.865Z,7.10
2019-03-29T20:08:44.763Z,7.00
2019-03-29T20:12:47.293Z,6.90
2019-03-29T20:16:49.181Z,6.70
2019-03-29T20:20:51.078Z,6.50
2019-03-29T20:24:52.972Z,6.40
2019-03-29T20:28:54.884Z,6.30
2019-03-29T20:32:56.779Z,6.30
2019-03-29T20:36:58.739Z,6.20
2019-03-29T20:41:00.639Z,6.20
2019-03-29T20:45:02.806Z,6.10
2019-03-29T20:49:04.721Z,6.00
2019-03-29T20:53:06.614Z,6.00
2019-03-29T20:57:08.519Z,5.90
2019-03-29T21:01:10.414Z,5.80
2019-03-29T21:05:12.646Z,5.80
2019-03-29T21:09:14.581Z,5.70
2019-03-29T21:13:16.490Z,5.50
2019-03-29T21:17:18.393Z,5.40
2019-03-29T21:21:20.287Z,5.20
2019-03-29T21:25:22.180Z,5.20
2019-03-29T21:29:24.066Z,5.10
2019-03-29T21:33:25.963Z,4.90
2019-03-29T21:37:27.924Z,4.90
2019-03-29T21:41:29.865Z,4.80
2019-03-29T21:45:31.911Z,4.80
2019-03-29T21:49:33.798Z,4.80
2019-03-29T21:53:35.708Z,4.70
2019-03-29T21:57:37.617Z,4.70
2019-03-29T22:01:39.523Z,4.60
2019-03-29T22:05:41.410Z,4.60
2019-03-29T22:09:43.318Z,4.50
2019-03-29T22:13:45.269Z,4.40
2019-03-29T22:17:47.452Z,4.30
2019-03-29T22:22:05.515Z,4.20
2019-03-29T22:26:07.413Z,4.20
2019-03-29T22:30:12.606Z,4.20
2019-03-29T22:34:14.535Z,4.10
2019-03-29T22:38:16.405Z,4.00
2019-03-29T22:42:19.273Z,4.00
2019-03-29T22:46:21.312Z,3.90
2019-03-29T22:50:23.221Z,3.90
2019-03-29T22:54:25.124Z,3.80
2019-03-29T22:58:28.572Z,3.80
2019-03-29T23:02:30.597Z,3.80
2019-03-29T23:06:32.564Z,3.80
2019-03-29T23:10:34.529Z,3.70
2019-03-29T23:14:36.520Z,3.70
2019-03-29T23:18:38.425Z,3.50
2019-03-29T23:22:40.399Z,3.50
2019-03-29T23:26:42.316Z,3.40
2019-03-29T23:30:44.369Z,3.30
2019-03-29T23:34:47.362Z,3.30
2019-03-29T23:38:49.283Z,3.20
2019-03-29T23:42:51.185Z,3.20
2019-03-29T23:46:53.087Z,3.20
2019-03-29T23:50:54.979Z,3.10
2019-03-29T23:54:56.887Z,3.10
2019-03-29T23:58:59.754Z,3.00
